Time;durP1;ratioP1;P1;durP2;ratioP2;P2;SDS_P1;SDS_P2;PMS_P1;PMS_P2;Temp;Humidity;BMP_temperature;BMP_pressure;BME280_temperature;BME280_humidity;BME280_pressure;Samples;Min_cycle;Max_cycle;Signal;HPM_P1;HPM_P2
2022/09/29 00:02:19;;;;;;;3.85;3.45;;;;;;;;;;4963174;28;20047;-74
2022/09/29 00:04:45;;;;;;;4.30;3.90;;;;;;;;;;4963476;28;20050;-74
2022/09/29 00:07:11;;;;;;;3.72;3.30;;;;;;;;;;4965116;29;20138;-74
2022/09/29 00:09:37;;;;;;;3.80;3.40;;;;;;;;;;4965782;28;20091;-74
2022/09/29 00:12:03;;;;;;;4.03;3.50;;;;;;;;;;4983976;28;20100;-74
2022/09/29 00:14:29;;;;;;;4.93;4.43;;;;;;;;;;4966347;28;20055;-74
2022/09/29 00:16:56;;;;;;;5.18;4.47;;;;;;;;;;4963936;28;20046;-74
2022/09/29 00:19:22;;;;;;;7.32;6.20;;;;;;;;;;4966279;28;20099;-74
2022/09/29 00:21:48;;;;;;;8.35;6.63;;;;;;;;;;4981623;28;20083;-74
2022/09/29 00:24:17;;;;;;;10.55;8.05;;;;;;;;;;4979804;28;20062;-74
2022/09/29 00:26:45;;;;;;;8.80;7.50;;;;;;;;;;4962956;28;20074;-74
2022/09/29 00:29:12;;;;;;;10.85;7.80;;;;;;;;;;4979497;28;20058;-75
2022/09/29 00:31:38;;;;;;;11.68;7.75;;;;;;;;;;4966115;28;20485;-74
2022/09/29 00:34:04;;;;;;;10.35;7.35;;;;;;;;;;4963284;28;20070;-74
2022/09/29 00:36:30;;;;;;;11.23;7.85;;;;;;;;;;4962057;28;20055;-74
2022/09/29 00:38:57;;;;;;;11.75;8.02;;;;;;;;;;4962608;28;20044;-74
2022/09/29 00:41:27;;;;;;;9.05;6.30;;;;;;;;;;4963794;28;20045;-74
2022/09/29 00:43:56;;;;;;;4.00;3.60;;;;;;;;;;4971790;28;20074;-74
2022/09/29 00:46:33;;;;;;;3.92;3.25;;;;;;;;;;4981400;28;20092;-74
2022/09/29 00:49:02;;;;;;;3.75;3.40;;;;;;;;;;4981763;28;20327;-75
2022/09/29 00:51:29;;;;;;;3.47;3.17;;;;;;;;;;4980755;28;20046;-74
2022/09/29 00:53:55;;;;;;;3.40;3.10;;;;;;;;;;4982080;28;20072;-74
2022/09/29 00:56:21;;;;;;;4.43;3.28;;;;;;;;;;4980231;28;20050;-74
2022/09/29 00:58:53;;;;;;;4.20;3.80;;;;;;;;;;4963158;28;20109;-74
2022/09/29 01:01:20;;;;;;;6.53;4.20;;;;;;;;;;4961734;28;20078;-74
2022/09/29 01:03:47;;;;;;;5.53;4.93;;;;;;;;;;4961533;28;20385;-74
2022/09/29 01:06:16;;;;;;;6.55;5.95;;;;;;;;;;4961421;28;20043;-74
2022/09/29 01:08:46;;;;;;;7.20;6.03;;;;;;;;;;4962554;28;20043;-74
2022/09/29 01:11:12;;;;;;;7.75;6.95;;;;;;;;;;4966257;28;20039;-74
2022/09/29 01:13:40;;;;;;;9.27;7.88;;;;;;;;;;4979235;28;20055;-74
2022/09/29 01:16:06;;;;;;;9.27;8.20;;;;;;;;;;4981165;28;20047;-74
2022/09/29 01:18:33;;;;;;;9.20;8.30;;;;;;;;;;4976549;28;20077;-74
2022/09/29 01:21:11;;;;;;;10.40;8.98;;;;;;;;;;4969173;28;20049;-74
2022/09/29 01:23:50;;;;;;;10.07;9.02;;;;;;;;;;4979270;28;20370;-74
2022/09/29 01:26:20;;;;;;;10.60;9.25;;;;;;;;;;4978107;28;20043;-74
2022/09/29 01:28:58;;;;;;;13.02;9.32;;;;;;;;;;4965615;28;20047;-74
2022/09/29 01:31:43;;;;;;;11.20;8.85;;;;;;;;;;4960460;28;20411;-74
2022/09/29 01:34:16;;;;;;;9.45;7.95;;;;;;;;;;4974218;28;20042;-74
2022/09/29 01:36:52;;;;;;;9.38;8.35;;;;;;;;;;4979818;28;20054;-74
2022/09/29 01:39:39;;;;;;;11.13;8.70;;;;;;;;;;4974539;28;20039;-74
2022/09/29 01:42:25;;;;;;;11.48;9.75;;;;;;;;;;4962164;28;20047;-74
2022/09/29 01:44:53;;;;;;;11.32;8.75;;;;;;;;;;4979854;28;20043;-74
2022/09/29 01:47:27;;;;;;;11.82;9.48;;;;;;;;;;4977359;28;20043;-74
2022/09/29 01:49:59;;;;;;;11.23;9.02;;;;;;;;;;4971768;28;20053;-75
2022/09/29 01:52:27;;;;;;;11.90;9.45;;;;;;;;;;4958936;28;20050;-74
2022/09/29 01:55:01;;;;;;;13.10;9.70;;;;;;;;;;4959965;28;20445;-74
2022/09/29 01:57:27;;;;;;;12.32;9.90;;;;;;;;;;4957149;28;20055;-74
2022/09/29 01:59:59;;;;;;;11.00;9.50;;;;;;;;;;4957357;28;20047;-73
2022/09/29 02:02:29;;;;;;;11.20;9.55;;;;;;;;;;4963235;28;20042;-74
2022/09/29 02:04:58;;;;;;;13.02;9.98;;;;;;;;;;4977752;28;20043;-74
2022/09/29 02:07:27;;;;;;;10.25;9.07;;;;;;;;;;4964344;28;20047;-74
2022/09/29 02:09:57;;;;;;;12.32;9.65;;;;;;;;;;4957803;28;20058;-74
2022/09/29 02:12:26;;;;;;;12.90;9.23;;;;;;;;;;4958174;29;20058;-74
2022/09/29 02:14:53;;;;;;;11.85;9.30;;;;;;;;;;4960610;28;20465;-74
2022/09/29 02:17:26;;;;;;;12.18;9.02;;;;;;;;;;4967166;28;20054;-74
2022/09/29 02:19:52;;;;;;;12.18;9.48;;;;;;;;;;4980287;28;20068;-74
2022/09/29 02:22:19;;;;;;;12.82;9.35;;;;;;;;;;4962552;28;20126;-74
2022/09/29 02:24:45;;;;;;;11.43;9.00;;;;;;;;;;4958809;28;20043;-74
2022/09/29 02:27:12;;;;;;;12.20;9.57;;;;;;;;;;4957401;28;20043;-74
2022/09/29 02:29:38;;;;;;;11.60;9.13;;;;;;;;;;4957720;28;20181;-74
2022/09/29 02:32:06;;;;;;;11.57;9.85;;;;;;;;;;4957096;28;20494;-74
2022/09/29 02:34:33;;;;;;;11.50;8.93;;;;;;;;;;4960230;28;20073;-74
2022/09/29 02:37:18;;;;;;;12.63;9.52;;;;;;;;;;4964777;28;20051;-74
2022/09/29 02:39:48;;;;;;;12.48;9.63;;;;;;;;;;4961369;29;20054;-74
2022/09/29 02:42:21;;;;;;;12.23;9.27;;;;;;;;;;4957989;28;20073;-74
2022/09/29 02:44:54;;;;;;;11.20;9.27;;;;;;;;;;4956288;28;20110;-74
2022/09/29 02:47:33;;;;;;;11.85;9.15;;;;;;;;;;4957132;28;20043;-74
2022/09/29 02:50:00;;;;;;;12.10;9.55;;;;;;;;;;4971455;28;20124;-74
2022/09/29 02:52:44;;;;;;;11.55;9.52;;;;;;;;;;4966650;28;20149;-74
2022/09/29 02:55:29;;;;;;;11.63;9.15;;;;;;;;;;4957828;28;20109;-74
2022/09/29 02:57:58;;;;;;;10.70;9.25;;;;;;;;;;4957723;28;20047;-74
2022/09/29 03:00:26;;;;;;;11.80;9.65;;;;;;;;;;4957361;28;20051;-74
2022/09/29 03:02:52;;;;;;;11.88;9.55;;;;;;;;;;4961046;28;20095;-74
2022/09/29 03:05:19;;;;;;;13.50;10.45;;;;;;;;;;4975195;28;20409;-74
2022/09/29 03:07:45;;;;;;;13.82;10.55;;;;;;;;;;4958064;28;20118;-74
2022/09/29 03:10:12;;;;;;;13.38;10.50;;;;;;;;;;4956343;28;20054;-74
2022/09/29 03:12:38;;;;;;;16.10;10.63;;;;;;;;;;4954878;29;20177;-74
2022/09/29 03:15:05;;;;;;;12.57;10.45;;;;;;;;;;4956140;28;20042;-74
2022/09/29 03:17:31;;;;;;;14.43;10.27;;;;;;;;;;4955904;28;20394;-74
2022/09/29 03:19:58;;;;;;;14.73;11.05;;;;;;;;;;4974980;28;20051;-74
2022/09/29 03:22:24;;;;;;;14.43;10.30;;;;;;;;;;4974058;28;20065;-74
2022/09/29 03:24:50;;;;;;;15.55;11.20;;;;;;;;;;4955851;28;20409;-74
2022/09/29 03:27:16;;;;;;;17.30;12.00;;;;;;;;;;4954815;29;20047;-74
2022/09/29 03:29:42;;;;;;;16.50;11.40;;;;;;;;;;4956416;28;20099;-74
2022/09/29 03:32:08;;;;;;;16.75;10.95;;;;;;;;;;4955153;28;20078;-75
2022/09/29 03:34:34;;;;;;;14.98;11.18;;;;;;;;;;4954926;28;20051;-74
2022/09/29 03:37:01;;;;;;;16.00;11.75;;;;;;;;;;4965566;28;20051;-74
2022/09/29 03:39:27;;;;;;;15.15;11.57;;;;;;;;;;4973483;28;20045;-74
2022/09/29 03:41:53;;;;;;;13.88;11.25;;;;;;;;;;4974171;28;20126;-74
2022/09/29 03:44:19;;;;;;;15.55;11.38;;;;;;;;;;4974346;28;20047;-75
2022/09/29 03:46:46;;;;;;;16.33;10.98;;;;;;;;;;4977489;28;20050;-74
2022/09/29 03:49:12;;;;;;;15.98;11.30;;;;;;;;;;4976732;28;20078;-74
2022/09/29 03:51:38;;;;;;;16.77;11.98;;;;;;;;;;4975939;28;20107;-74
2022/09/29 03:54:06;;;;;;;16.98;12.15;;;;;;;;;;4963536;28;20089;-74
2022/09/29 03:56:32;;;;;;;17.15;11.82;;;;;;;;;;4957329;29;20527;-74
2022/09/29 03:58:58;;;;;;;17.27;12.52;;;;;;;;;;4958799;28;20495;-74
2022/09/29 04:01:24;;;;;;;15.27;10.95;;;;;;;;;;4972702;28;20050;-74
2022/09/29 04:03:50;;;;;;;17.30;11.85;;;;;;;;;;4977318;28;20045;-75
2022/09/29 04:06:16;;;;;;;18.02;11.93;;;;;;;;;;4966055;28;20058;-74
2022/09/29 04:08:42;;;;;;;16.10;11.95;;;;;;;;;;4971052;28;20417;-75
2022/09/29 04:11:08;;;;;;;20.48;13.43;;;;;;;;;;4967499;28;20059;-74
2022/09/29 04:13:34;;;;;;;18.45;12.18;;;;;;;;;;4956421;28;20402;-74
2022/09/29 04:16:01;;;;;;;21.05;11.93;;;;;;;;;;4957854;28;20075;-74
2022/09/29 04:18:28;;;;;;;22.98;12.38;;;;;;;;;;4957200;29;20059;-74
2022/09/29 04:20:59;;;;;;;21.60;13.02;;;;;;;;;;4968854;28;20051;-74
2022/09/29 04:23:25;;;;;;;24.77;13.50;;;;;;;;;;4969787;28;20113;-74
2022/09/29 04:25:51;;;;;;;25.98;13.85;;;;;;;;;;4966515;28;20064;-74
2022/09/29 04:28:17;;;;;;;19.95;12.27;;;;;;;;;;4958836;28;20078;-74
2022/09/29 04:30:43;;;;;;;17.65;11.30;;;;;;;;;;4957621;28;20073;-74
2022/09/29 04:33:09;;;;;;;18.40;12.90;;;;;;;;;;4957399;28;20058;-74
2022/09/29 04:35:35;;;;;;;19.73;12.07;;;;;;;;;;4964116;28;20053;-74
2022/09/29 04:38:01;;;;;;;15.43;10.80;;;;;;;;;;4976235;28;20043;-75
2022/09/29 04:40:27;;;;;;;15.45;11.43;;;;;;;;;;4976321;28;20054;-74
2022/09/29 04:42:53;;;;;;;17.67;11.57;;;;;;;;;;4961641;28;20108;-74
2022/09/29 04:45:19;;;;;;;13.95;9.95;;;;;;;;;;4956140;28;20126;-74
2022/09/29 04:47:45;;;;;;;13.18;9.95;;;;;;;;;;4940484;28;20058;-74
2022/09/29 04:50:11;;;;;;;12.85;10.05;;;;;;;;;;4955086;28;20043;-74
2022/09/29 04:52:37;;;;;;;11.90;9.98;;;;;;;;;;4957379;28;20050;-75
2022/09/29 04:55:04;;;;;;;12.95;9.27;;;;;;;;;;4969446;28;20044;-75
2022/09/29 04:57:30;;;;;;;13.32;10.50;;;;;;;;;;4956638;28;20102;-74
2022/09/29 04:59:56;;;;;;;17.27;11.15;;;;;;;;;;4958036;28;20066;-74
2022/09/29 05:02:22;;;;;;;16.23;11.15;;;;;;;;;;4956677;28;20044;-74
2022/09/29 05:04:48;;;;;;;26.80;14.05;;;;;;;;;;4955562;28;20058;-74
2022/09/29 05:07:15;;;;;;;56.05;15.27;;;;;;;;;;4956137;28;20043;-77
2022/09/29 05:09:41;;;;;;;65.05;14.85;;;;;;;;;;4965140;28;20170;-80
2022/09/29 05:12:07;;;;;;;82.03;17.80;;;;;;;;;;4975932;28;20047;-74
2022/09/29 05:14:33;;;;;;;117.13;19.85;;;;;;;;;;4987345;28;20047;-74
2022/09/29 05:16:59;;;;;;;104.93;17.88;;;;;;;;;;4984894;28;20055;-74
2022/09/29 05:19:26;;;;;;;99.57;18.60;;;;;;;;;;4963693;28;20050;-74
2022/09/29 05:21:52;;;;;;;84.60;16.10;;;;;;;;;;4964538;28;20051;-74
2022/09/29 05:24:18;;;;;;;61.25;14.70;;;;;;;;;;4980676;28;20110;-74
2022/09/29 05:26:44;;;;;;;72.00;15.02;;;;;;;;;;4975758;28;20520;-74
2022/09/29 05:29:10;;;;;;;73.00;15.15;;;;;;;;;;4965456;29;20074;-74
2022/09/29 05:31:36;;;;;;;69.40;15.57;;;;;;;;;;4968272;28;20564;-74
2022/09/29 05:34:02;;;;;;;67.07;15.48;;;;;;;;;;4972198;28;20068;-74
2022/09/29 05:36:28;;;;;;;26.10;11.95;;;;;;;;;;4988342;28;20051;-74
2022/09/29 05:38:55;;;;;;;39.72;14.13;;;;;;;;;;4989746;28;20053;-74
2022/09/29 05:41:22;;;;;;;33.88;13.32;;;;;;;;;;4985999;28;20074;-75
2022/09/29 05:43:48;;;;;;;30.15;13.73;;;;;;;;;;4984791;28;20093;-74
2022/09/29 05:46:15;;;;;;;21.27;11.82;;;;;;;;;;4973690;28;20059;-74
2022/09/29 05:48:42;;;;;;;17.10;11.57;;;;;;;;;;4966170;28;20066;-75
2022/09/29 05:51:09;;;;;;;19.17;10.60;;;;;;;;;;4964534;28;20061;-77
2022/09/29 05:53:36;;;;;;;29.38;13.52;;;;;;;;;;4964492;28;20058;-74
2022/09/29 05:56:15;;;;;;;19.75;11.45;;;;;;;;;;4961274;28;20043;-76
2022/09/29 05:58:41;;;;;;;23.88;13.30;;;;;;;;;;4982547;28;20062;-74
2022/09/29 06:01:07;;;;;;;32.47;14.23;;;;;;;;;;4967116;28;20044;-74
2022/09/29 06:03:34;;;;;;;25.58;12.65;;;;;;;;;;4975172;28;20458;-73
2022/09/29 06:06:04;;;;;;;27.02;13.55;;;;;;;;;;4952818;28;20514;-77
2022/09/29 06:08:30;;;;;;;23.85;12.27;;;;;;;;;;4952496;28;20070;-76
2022/09/29 06:11:02;;;;;;;18.90;11.52;;;;;;;;;;4951379;28;20074;-76
2022/09/29 06:13:28;;;;;;;27.17;12.65;;;;;;;;;;4970280;28;20047;-76
2022/09/29 06:15:54;;;;;;;19.60;11.60;;;;;;;;;;4971998;28;20046;-76
2022/09/29 06:18:20;;;;;;;20.70;11.40;;;;;;;;;;4958227;28;20057;-77
2022/09/29 06:20:46;;;;;;;28.40;13.35;;;;;;;;;;4951223;28;20047;-76
2022/09/29 06:23:12;;;;;;;22.17;12.90;;;;;;;;;;4934891;28;20062;-76
2022/09/29 06:25:38;;;;;;;28.83;13.45;;;;;;;;;;4956249;28;20051;-77
2022/09/29 06:28:04;;;;;;;31.27;13.38;;;;;;;;;;4952596;28;20114;-76
2022/09/29 06:30:30;;;;;;;26.02;12.43;;;;;;;;;;4970510;28;20050;-76
2022/09/29 06:32:56;;;;;;;35.75;13.75;;;;;;;;;;4971726;28;20043;-77
2022/09/29 06:38:07;;;;;;;17.35;12.45;;;;;;;;;;4970645;28;20082;-77
2022/09/29 06:40:33;;;;;;;18.92;12.50;;;;;;;;;;4965393;28;20046;-76
2022/09/29 06:42:59;;;;;;;14.73;11.93;;;;;;;;;;4952303;28;20047;-76
2022/09/29 06:45:25;;;;;;;14.48;12.07;;;;;;;;;;4952844;28;20097;-77
2022/09/29 06:47:57;;;;;;;16.27;12.63;;;;;;;;;;4956495;28;20163;-77
2022/09/29 06:50:23;;;;;;;15.77;13.40;;;;;;;;;;4956878;28;20043;-77
2022/09/29 06:52:49;;;;;;;18.98;14.38;;;;;;;;;;4951379;28;20043;-77
2022/09/29 06:55:15;;;;;;;17.33;14.00;;;;;;;;;;4993092;28;20501;-77
2022/09/29 06:57:41;;;;;;;15.07;12.55;;;;;;;;;;4960078;28;20051;-77
2022/09/29 07:00:07;;;;;;;16.60;13.02;;;;;;;;;;4958204;28;20418;-77
2022/09/29 07:02:33;;;;;;;16.67;12.35;;;;;;;;;;4953724;28;20062;-76
2022/09/29 07:04:59;;;;;;;13.75;11.57;;;;;;;;;;4952144;28;20047;-77
2022/09/29 07:07:25;;;;;;;18.50;13.57;;;;;;;;;;4951395;28;20053;-75
2022/09/29 07:09:52;;;;;;;14.77;12.30;;;;;;;;;;4958777;28;20126;-75
2022/09/29 07:12:18;;;;;;;21.50;13.95;;;;;;;;;;4963885;28;20101;-77
2022/09/29 07:14:44;;;;;;;17.67;14.10;;;;;;;;;;4966184;28;20062;-77
2022/09/29 07:17:12;;;;;;;18.58;14.32;;;;;;;;;;4970835;28;20139;-77
2022/09/29 07:19:38;;;;;;;19.25;14.02;;;;;;;;;;4964271;28;20066;-77
2022/09/29 07:22:05;;;;;;;22.35;16.40;;;;;;;;;;4965702;28;20043;-78
2022/09/29 07:24:31;;;;;;;19.65;15.63;;;;;;;;;;4967729;28;20051;-76
2022/09/29 07:26:57;;;;;;;19.88;14.10;;;;;;;;;;4970735;28;20100;-77
2022/09/29 07:29:23;;;;;;;22.90;15.63;;;;;;;;;;4959795;28;20094;-77
2022/09/29 07:31:51;;;;;;;23.88;16.25;;;;;;;;;;4956140;28;20453;-75
2022/09/29 07:34:17;;;;;;;25.10;16.50;;;;;;;;;;4959443;28;20042;-77
2022/09/29 07:36:43;;;;;;;24.42;17.70;;;;;;;;;;4967406;28;20043;-77
2022/09/29 07:39:09;;;;;;;28.63;18.23;;;;;;;;;;4976317;28;20039;-77
2022/09/29 07:41:36;;;;;;;30.35;18.35;;;;;;;;;;4953842;28;20047;-78
2022/09/29 07:44:02;;;;;;;25.98;17.10;;;;;;;;;;4954206;28;20485;-77
2022/09/29 07:46:28;;;;;;;26.10;17.25;;;;;;;;;;5005849;28;20052;-77
2022/09/29 07:48:54;;;;;;;25.63;17.63;;;;;;;;;;5011923;28;20391;-77
2022/09/29 07:51:20;;;;;;;25.15;18.25;;;;;;;;;;4952999;28;20133;-77
2022/09/29 07:53:46;;;;;;;27.77;16.88;;;;;;;;;;4957384;28;20104;-76
2022/09/29 07:56:17;;;;;;;26.17;17.00;;;;;;;;;;4979655;28;20050;-76
2022/09/29 07:58:43;;;;;;;24.48;15.52;;;;;;;;;;4970674;28;20414;-76
2022/09/29 08:01:11;;;;;;;23.38;16.30;;;;;;;;;;4956693;28;20055;-76
2022/09/29 08:03:41;;;;;;;23.48;16.63;;;;;;;;;;4955756;28;20483;-76
2022/09/29 08:06:07;;;;;;;19.52;14.50;;;;;;;;;;4961515;28;20444;-76
2022/09/29 08:08:38;;;;;;;24.33;16.27;;;;;;;;;;4969857;28;20493;-76
2022/09/29 08:11:06;;;;;;;20.52;14.80;;;;;;;;;;4971520;28;20050;-76
2022/09/29 08:13:33;;;;;;;19.80;14.93;;;;;;;;;;4962682;28;20502;-76
2022/09/29 08:16:00;;;;;;;17.58;12.65;;;;;;;;;;4991392;28;20077;-77
2022/09/29 08:18:27;;;;;;;15.75;12.00;;;;;;;;;;4959270;28;20051;-77
2022/09/29 08:20:53;;;;;;;16.75;12.77;;;;;;;;;;4971266;28;20112;-77
2022/09/29 08:23:19;;;;;;;15.20;12.18;;;;;;;;;;4976592;28;20058;-76
2022/09/29 08:25:45;;;;;;;15.27;12.38;;;;;;;;;;4982444;28;20126;-77
2022/09/29 08:28:11;;;;;;;18.95;12.80;;;;;;;;;;4974142;28;20074;-77
2022/09/29 08:30:38;;;;;;;16.30;12.45;;;;;;;;;;4954092;28;20081;-76
2022/09/29 08:33:07;;;;;;;15.40;12.60;;;;;;;;;;4953975;28;20052;-76
2022/09/29 08:35:33;;;;;;;15.00;12.48;;;;;;;;;;4954503;28;20131;-77
2022/09/29 08:37:59;;;;;;;16.10;12.27;;;;;;;;;;4974566;28;20051;-77
2022/09/29 08:40:30;;;;;;;14.40;11.55;;;;;;;;;;4973471;28;20042;-76
2022/09/29 08:42:59;;;;;;;16.48;12.50;;;;;;;;;;4973794;28;20054;-77
2022/09/29 08:45:30;;;;;;;14.20;11.10;;;;;;;;;;4972509;28;20520;-76
2022/09/29 08:48:04;;;;;;;13.43;10.98;;;;;;;;;;4962035;28;20039;-76
2022/09/29 08:50:42;;;;;;;15.15;11.18;;;;;;;;;;4972536;28;20043;-75
2022/09/29 08:53:12;;;;;;;14.15;11.63;;;;;;;;;;4983394;28;20051;-75
2022/09/29 08:55:45;;;;;;;15.60;11.20;;;;;;;;;;4982143;28;20107;-75
2022/09/29 08:58:13;;;;;;;11.70;9.90;;;;;;;;;;4969395;28;20051;-75
2022/09/29 09:00:46;;;;;;;12.00;9.68;;;;;;;;;;4963493;28;20047;-75
2022/09/29 09:03:20;;;;;;;12.18;9.60;;;;;;;;;;5069541;28;20036;-75
2022/09/29 09:06:00;;;;;;;10.82;8.70;;;;;;;;;;5047342;28;20058;-75
2022/09/29 09:08:29;;;;;;;11.68;8.85;;;;;;;;;;4966262;28;20089;-74
2022/09/29 09:11:14;;;;;;;12.23;9.57;;;;;;;;;;4965598;28;20387;-75
2022/09/29 09:14:06;;;;;;;9.95;8.23;;;;;;;;;;4964786;28;20158;-75
2022/09/29 09:16:39;;;;;;;10.75;8.38;;;;;;;;;;4969212;28;20051;-75
2022/09/29 09:19:19;;;;;;;10.60;7.90;;;;;;;;;;4964458;28;20058;-75
2022/09/29 09:21:54;;;;;;;10.88;8.25;;;;;;;;;;4971871;28;20506;-75
2022/09/29 09:24:39;;;;;;;8.23;7.25;;;;;;;;;;4981188;28;20047;-75
2022/09/29 09:27:05;;;;;;;9.05;7.70;;;;;;;;;;4979276;28;20047;-75
2022/09/29 09:29:41;;;;;;;7.70;6.50;;;;;;;;;;4964444;28;20115;-75
2022/09/29 09:32:15;;;;;;;7.53;4.88;;;;;;;;;;4965284;28;20046;-75
2022/09/29 09:34:53;;;;;;;5.85;5.03;;;;;;;;;;4964624;28;20049;-75
2022/09/29 09:37:28;;;;;;;9.07;5.50;;;;;;;;;;4964355;28;20087;-75
2022/09/29 09:39:57;;;;;;;5.43;4.30;;;;;;;;;;4964784;28;20044;-75
2022/09/29 09:42:29;;;;;;;5.55;4.13;;;;;;;;;;4972320;28;20045;-75
2022/09/29 09:45:00;;;;;;;5.55;3.95;;;;;;;;;;4983370;28;20123;-75
2022/09/29 09:47:30;;;;;;;4.78;3.88;;;;;;;;;;4984347;28;20051;-75
2022/09/29 09:49:57;;;;;;;6.53;4.55;;;;;;;;;;4984223;28;20042;-75
2022/09/29 09:52:27;;;;;;;6.63;5.10;;;;;;;;;;4976526;28;20449;-75
2022/09/29 09:54:55;;;;;;;6.38;5.05;;;;;;;;;;4964437;28;20043;-75
2022/09/29 09:57:33;;;;;;;5.30;4.30;;;;;;;;;;4963637;28;20054;-75
2022/09/29 09:59:59;;;;;;;6.28;3.50;;;;;;;;;;4964147;28;20093;-75
2022/09/29 10:02:25;;;;;;;4.85;3.92;;;;;;;;;;4967402;28;20043;-76
2022/09/29 10:04:52;;;;;;;6.35;3.35;;;;;;;;;;4966217;28;20106;-76
2022/09/29 10:07:22;;;;;;;4.35;2.88;;;;;;;;;;4966133;28;20374;-76
2022/09/29 10:09:49;;;;;;;2.75;2.00;;;;;;;;;;4968350;28;20053;-76
2022/09/29 10:12:16;;;;;;;4.28;2.58;;;;;;;;;;4975501;28;20070;-76
2022/09/29 10:14:46;;;;;;;2.50;2.08;;;;;;;;;;4970221;28;20062;-75
2022/09/29 10:17:14;;;;;;;3.38;2.40;;;;;;;;;;4972801;28;20381;-75
2022/09/29 10:19:52;;;;;;;2.78;2.05;;;;;;;;;;4973802;28;20070;-75
2022/09/29 10:22:18;;;;;;;2.97;2.28;;;;;;;;;;4957768;28;20047;-75
2022/09/29 10:24:45;;;;;;;2.55;1.90;;;;;;;;;;4952617;28;20464;-75
2022/09/29 10:27:17;;;;;;;3.13;2.30;;;;;;;;;;4966467;28;20086;-75
2022/09/29 10:29:48;;;;;;;2.97;1.88;;;;;;;;;;4968524;28;20051;-75
2022/09/29 10:32:15;;;;;;;2.08;1.70;;;;;;;;;;4961802;28;20061;-75
2022/09/29 10:34:43;;;;;;;2.22;1.60;;;;;;;;;;4935739;28;20100;-75
2022/09/29 10:37:19;;;;;;;1.48;1.23;;;;;;;;;;4961763;28;20105;-75
2022/09/29 10:39:49;;;;;;;2.60;1.90;;;;;;;;;;4957081;28;20138;-75
2022/09/29 10:42:23;;;;;;;2.05;1.77;;;;;;;;;;4960027;28;20050;-75
2022/09/29 10:44:52;;;;;;;2.33;1.70;;;;;;;;;;4973404;28;20042;-76
2022/09/29 10:47:19;;;;;;;2.53;1.80;;;;;;;;;;4961486;28;20047;-76
2022/09/29 10:49:45;;;;;;;2.08;1.77;;;;;;;;;;4937806;29;20047;-76
2022/09/29 10:52:30;;;;;;;1.65;1.55;;;;;;;;;;4967515;28;20123;-76
2022/09/29 10:55:02;;;;;;;2.30;1.70;;;;;;;;;;4961712;28;20050;-76
2022/09/29 10:57:30;;;;;;;2.10;1.90;;;;;;;;;;4952439;29;20048;-76
2022/09/29 10:59:57;;;;;;;2.40;2.10;;;;;;;;;;4953937;28;20130;-76
2022/09/29 11:02:29;;;;;;;3.00;1.73;;;;;;;;;;4960868;28;20079;-77
2022/09/29 11:04:56;;;;;;;2.45;2.00;;;;;;;;;;4953376;28;20394;-75
2022/09/29 11:07:22;;;;;;;3.00;2.17;;;;;;;;;;4952658;28;20039;-76
2022/09/29 11:09:50;;;;;;;3.50;1.80;;;;;;;;;;4944383;29;20154;-76
2022/09/29 11:12:28;;;;;;;35.65;12.00;;;;;;;;;;4956656;28;20058;-76
2022/09/29 11:14:54;;;;;;;2.55;1.63;;;;;;;;;;4955492;28;20078;-76
2022/09/29 11:17:39;;;;;;;3.05;1.50;;;;;;;;;;4955455;28;20384;-76
2022/09/29 11:20:10;;;;;;;2.65;1.98;;;;;;;;;;4954535;28;20387;-76
2022/09/29 11:22:51;;;;;;;12.48;3.97;;;;;;;;;;4950668;28;20050;-76
2022/09/29 11:25:36;;;;;;;3.40;1.65;;;;;;;;;;4967909;28;20122;-76
2022/09/29 11:28:11;;;;;;;2.53;1.60;;;;;;;;;;4970098;28;20054;-76
2022/09/29 11:30:55;;;;;;;3.42;1.70;;;;;;;;;;4971067;28;20085;-76
2022/09/29 11:33:32;;;;;;;4.13;1.55;;;;;;;;;;4969960;28;20130;-76
2022/09/29 11:36:04;;;;;;;3.10;1.55;;;;;;;;;;4952063;28;20138;-76
2022/09/29 11:38:41;;;;;;;1.50;1.40;;;;;;;;;;4951380;28;20043;-76
2022/09/29 11:41:14;;;;;;;1.52;1.38;;;;;;;;;;4965454;28;20051;-76
2022/09/29 11:43:46;;;;;;;2.03;1.23;;;;;;;;;;4970145;28;20065;-76
2022/09/29 11:46:30;;;;;;;1.17;0.98;;;;;;;;;;4971214;28;20043;-76
2022/09/29 11:49:15;;;;;;;1.75;1.10;;;;;;;;;;4950787;28;20073;-76
2022/09/29 11:52:16;;;;;;;1.42;1.30;;;;;;;;;;4952110;28;20052;-76
2022/09/29 11:55:01;;;;;;;1.40;1.17;;;;;;;;;;5047037;28;20084;-76
2022/09/29 11:57:45;;;;;;;1.30;1.20;;;;;;;;;;5033709;28;20587;-76
2022/09/29 12:00:13;;;;;;;1.45;1.27;;;;;;;;;;5050358;28;20068;-76
2022/09/29 12:03:05;;;;;;;1.30;1.20;;;;;;;;;;5050379;28;20049;-76
2022/09/29 12:05:43;;;;;;;1.50;1.00;;;;;;;;;;5012243;28;20052;-76
2022/09/29 12:08:31;;;;;;;1.10;1.02;;;;;;;;;;5052851;28;20049;-76
2022/09/29 12:11:06;;;;;;;0.98;0.75;;;;;;;;;;5048606;28;20041;-76
2022/09/29 12:13:35;;;;;;;2.13;1.17;;;;;;;;;;5031092;28;20037;-76
2022/09/29 12:16:13;;;;;;;5.30;1.50;;;;;;;;;;5053682;28;20132;-76
2022/09/29 12:18:48;;;;;;;0.98;0.90;;;;;;;;;;5035087;28;20059;-76
2022/09/29 12:21:16;;;;;;;1.58;1.10;;;;;;;;;;5052839;28;20130;-76
2022/09/29 12:23:44;;;;;;;1.45;0.77;;;;;;;;;;5051876;28;20415;-76
2022/09/29 12:26:13;;;;;;;1.17;1.00;;;;;;;;;;5036792;28;20052;-76
2022/09/29 12:28:52;;;;;;;1.52;1.00;;;;;;;;;;5014445;28;20123;-76
2022/09/29 12:31:25;;;;;;;1.25;1.00;;;;;;;;;;4962471;28;20047;-76
2022/09/29 12:33:53;;;;;;;2.38;1.10;;;;;;;;;;4953643;28;20051;-76
2022/09/29 12:39:12;;;;;;;0.70;0.70;;;;;;;;;;4978302;28;20051;-76
2022/09/29 12:41:41;;;;;;;0.80;0.80;;;;;;;;;;4974288;28;20054;-76
2022/09/29 12:44:22;;;;;;;0.90;0.90;;;;;;;;;;4976645;28;20050;-76
2022/09/29 12:47:14;;;;;;;0.98;0.98;;;;;;;;;;4973742;28;20042;-76
2022/09/29 12:49:53;;;;;;;0.90;0.90;;;;;;;;;;4973458;28;20059;-76
2022/09/29 12:52:23;;;;;;;0.80;0.80;;;;;;;;;;4966050;28;20051;-77
2022/09/29 12:54:55;;;;;;;1.50;1.13;;;;;;;;;;4957205;28;20059;-76
2022/09/29 12:57:26;;;;;;;1.10;1.00;;;;;;;;;;4955433;28;20097;-76
2022/09/29 12:59:52;;;;;;;1.40;1.30;;;;;;;;;;4965524;28;20043;-76
2022/09/29 13:02:36;;;;;;;0.88;0.82;;;;;;;;;;4989373;28;20119;-75
2022/09/29 13:05:25;;;;;;;0.88;0.80;;;;;;;;;;4991012;28;20078;-76
2022/09/29 13:07:54;;;;;;;1.13;0.95;;;;;;;;;;5050814;28;20079;-76
2022/09/29 13:10:35;;;;;;;1.27;1.17;;;;;;;;;;5058492;28;20060;-76
2022/09/29 13:13:03;;;;;;;2.83;1.10;;;;;;;;;;5063277;28;20622;-76
2022/09/29 13:15:32;;;;;;;0.70;0.70;;;;;;;;;;5056992;28;20527;-76
2022/09/29 13:18:20;;;;;;;1.60;1.00;;;;;;;;;;5065698;28;20448;-76
2022/09/29 13:20:51;;;;;;;1.95;1.33;;;;;;;;;;5054442;28;20045;-76
2022/09/29 13:23:27;;;;;;;0.95;0.95;;;;;;;;;;5076420;28;20614;-76
2022/09/29 13:25:56;;;;;;;2.47;1.35;;;;;;;;;;5074755;28;20137;-76
2022/09/29 13:28:28;;;;;;;1.05;0.98;;;;;;;;;;5090409;28;20566;-76
2022/09/29 13:30:55;;;;;;;1.42;0.90;;;;;;;;;;5086297;28;20044;-76
2022/09/29 13:33:23;;;;;;;1.73;1.10;;;;;;;;;;5085778;28;20063;-76
2022/09/29 13:35:50;;;;;;;1.98;1.10;;;;;;;;;;5084832;28;20045;-76
2022/09/29 13:38:16;;;;;;;1.40;1.30;;;;;;;;;;5078247;28;20132;-76
2022/09/29 13:41:02;;;;;;;1.55;0.90;;;;;;;;;;5066976;28;20145;-76
2022/09/29 13:43:46;;;;;;;1.77;1.20;;;;;;;;;;5082238;28;20048;-77
2022/09/29 13:46:30;;;;;;;1.83;1.02;;;;;;;;;;4958591;28;20047;-75
2022/09/29 13:49:10;;;;;;;1.10;1.00;;;;;;;;;;4966095;28;20050;-76
2022/09/29 13:51:42;;;;;;;1.15;1.05;;;;;;;;;;4963433;28;20140;-76
2022/09/29 13:54:22;;;;;;;3.17;1.20;;;;;;;;;;4965424;28;20058;-76
2022/09/29 13:57:05;;;;;;;4.07;1.02;;;;;;;;;;4976624;28;20047;-76
2022/09/29 13:59:32;;;;;;;2.13;1.45;;;;;;;;;;4975201;28;20486;-76
2022/09/29 14:01:58;;;;;;;2.15;1.52;;;;;;;;;;4966238;28;20043;-77
2022/09/29 14:04:33;;;;;;;2.22;1.40;;;;;;;;;;4962986;28;20085;-77
2022/09/29 14:07:01;;;;;;;4.13;1.30;;;;;;;;;;4953466;28;20098;-76
2022/09/29 14:09:31;;;;;;;3.58;1.70;;;;;;;;;;4957095;28;20047;-76
2022/09/29 14:12:01;;;;;;;3.97;1.65;;;;;;;;;;4959913;28;20093;-76
2022/09/29 14:14:36;;;;;;;5.95;2.63;;;;;;;;;;4952583;28;20420;-76
2022/09/29 14:17:24;;;;;;;1.55;1.30;;;;;;;;;;4952669;28;20039;-76
2022/09/29 14:19:59;;;;;;;8.93;3.15;;;;;;;;;;4952610;28;20047;-76
2022/09/29 14:22:31;;;;;;;2.58;1.48;;;;;;;;;;4951710;28;20491;-77
2022/09/29 14:25:23;;;;;;;3.45;1.58;;;;;;;;;;4951982;29;20050;-76
2022/09/29 14:27:57;;;;;;;1.70;1.08;;;;;;;;;;4967782;28;20091;-77
2022/09/29 14:30:30;;;;;;;6.47;2.28;;;;;;;;;;4954289;28;20082;-76
2022/09/29 14:32:58;;;;;;;10.77;3.15;;;;;;;;;;4964423;28;20055;-76
2022/09/29 14:35:28;;;;;;;2.95;1.20;;;;;;;;;;4972192;28;20068;-76
2022/09/29 14:38:03;;;;;;;2.85;1.45;;;;;;;;;;4962252;28;20423;-77
2022/09/29 14:40:30;;;;;;;4.30;1.70;;;;;;;;;;4963198;28;20047;-76
2022/09/29 14:43:09;;;;;;;1.08;0.90;;;;;;;;;;4957983;28;20047;-76
2022/09/29 14:54:20;;;;;;;1.25;0.88;;;;;;;;;;5077357;28;20434;-76
2022/09/29 14:56:48;;;;;;;4.68;2.03;;;;;;;;;;5039631;28;20517;-76
2022/09/29 14:59:34;;;;;;;1.10;1.00;;;;;;;;;;4958821;28;20398;-77
2022/09/29 15:02:00;;;;;;;3.75;1.08;;;;;;;;;;4957741;28;20092;-76
2022/09/29 15:04:26;;;;;;;0.93;0.90;;;;;;;;;;4974621;28;20051;-76